Seastreak New York — WDA4972 — position and weather

sailwx.info

Track history (hours):
 
Tides and Currents Weather Stations Pressure Air Temp Water Temp Dewpoint Dewpoint Depression Visibility Wind Speed Wind Dir Waves Ship Positions

Seastreak New York

Owner: CIRCLE NAVIGATION, NEW YORK, NY. More information available from US FCC via Universal Licensing System and Coast Guard Vessel Documentation Center.

Last reported at 2017-Dec-11 17:00 UTC. Time now 2017-Dec-12 14:13 UTC.
Position N 40°45' W 073°58'.

; draft 4.7 m.

Type: Passenger vessel. MMSI: 367347130.

Date/timePositionNaut miles runAvg speedWind from/ knotsBaromVisibWave heightAir tempDewpointWater temp
2017-Dec-11 17:00N 40°45' W 073°58'0 0.0
2017-Dec-11 16:30N 40°45' W 073°58'0 0.0
2017-Dec-11 16:00N 40°45' W 073°58'0 0.0
2017-Dec-11 15:30N 40°45' W 073°58'0 0.0
2017-Dec-11 14:59N 40°45' W 073°58'4 8.9
2017-Dec-11 14:31N 40°41' W 074°02'1630.9
2017-Dec-11 14:00N 40°25' W 074°02'713.3
2017-Dec-11 13:30N 40°32' W 074°02'1324.8
2017-Dec-11 12:59N 40°45' W 073°58'612.9
2017-Dec-11 12:31N 40°39' W 074°02'1426.6
2017-Dec-11 11:59N 40°25' W 074°02'2 3.7
2017-Dec-11 11:29N 40°25' W 073°60'0 0.0
2017-Dec-09 21:44N 40°25' W 073°60'1 4.0
2017-Dec-09 21:30N 40°25' W 074°00'1223.6
2017-Dec-09 21:01N 40°37' W 074°03'611.3
2017-Dec-09 20:30N 40°42' W 074°00'2 4.4
2017-Dec-09 20:01N 40°44' W 073°58'1223.5
2017-Dec-09 19:30N 40°32' W 074°02'0 0.7
2017-Dec-09 18:49N 40°31' W 074°02'824.9
2017-Dec-09 18:31N 40°39' W 074°02'612.3
2017-Dec-09 18:00N 40°45' W 073°58'815.2
2017-Dec-09 17:30N 40°38' W 074°03'1326.9
2017-Dec-09 17:01N 40°25' W 073°60'6 8.4
2017-Dec-09 16:21N 40°30' W 074°02'1028.8
2017-Dec-09 16:00N 40°40' W 074°01'4 7.7
2017-Dec-09 15:31N 40°43' W 073°58'611.3
2017-Dec-09 15:00N 40°38' W 074°02'14 2.8
2017-Dec-09 10:01N 40°25' W 073°60'0 0.1
2017-Dec-09 09:58N 40°25' W 073°60'0 0.0
2017-Dec-09 09:25N 40°25' W 073°60'0 0.0
2017-Dec-09 08:55N 40°25' W 073°60'0 0.0
2017-Dec-09 08:30N 40°25' W 073°60'0 0.0
2017-Dec-09 08:01N 40°25' W 073°60'0 0.0
2017-Dec-09 07:03N 40°25' W 073°60'0 0.0
2017-Dec-09 06:43N 40°25' W 073°60'0 0.0
2017-Dec-09 01:49N 40°25' W 073°60'814.8
2017-Dec-09 01:16N 40°33' W 074°02'933.3
2017-Dec-09 01:01N 40°41' W 074°01'4 8.0
2017-Dec-09 00:30N 40°45' W 073°58'714.2
2017-Dec-09 00:01N 40°38' W 074°02'1422.4
2017-Dec-08 23:23N 40°25' W 073°60'814.0
2017-Dec-08 22:51N 40°32' W 074°02'1030.4
2017-Dec-08 22:30N 40°42' W 074°00'3 5.7
2017-Dec-08 22:00N 40°45' W 073°58'815.3
2017-Dec-08 21:30N 40°38' W 074°03'1321.1
2017-Dec-08 20:55N 40°25' W 074°02'915.5
2017-Dec-08 20:19N 40°34' W 074°02'825.2
2017-Dec-08 20:00N 40°42' W 074°00'3 5.8
2017-Dec-08 19:30N 40°45' W 073°58'0 0.0
2017-Dec-08 19:00N 40°45' W 073°58'0 0.0
2017-Dec-08 18:31N 40°45' W 073°58'0 0.0
2017-Dec-08 18:00N 40°45' W 073°58'0 0.0
2017-Dec-08 17:30N 40°45' W 073°58'0 0.0
2017-Dec-08 17:00N 40°45' W 073°58'0 0.0
2017-Dec-08 16:30N 40°45' W 073°58'0 0.0
2017-Dec-08 16:00N 40°45' W 073°58'0 0.0
2017-Dec-08 15:30N 40°45' W 073°58'0 0.0
2017-Dec-08 15:00N 40°45' W 073°58'3 6.3
2017-Dec-08 14:30N 40°42' W 074°00'1529.9
2017-Dec-08 14:00N 40°27' W 074°01'914.2
2017-Dec-08 13:23N 40°36' W 074°02'923.7
2017-Dec-08 12:59N 40°45' W 073°58'511.1
2017-Dec-08 12:31N 40°40' W 074°01'1519.2
2017-Dec-08 11:44N 40°25' W 074°00'1 0.1
2017-Dec-08 04:52N 40°25' W 073°60'0 0.0
2017-Dec-08 04:28N 40°25' W 073°60'0 0.0
2017-Dec-08 04:00N 40°25' W 073°60'0 0.0
2017-Dec-08 03:29N 40°25' W 073°60'0 0.0
2017-Dec-08 03:00N 40°25' W 073°60'0 0.0
2017-Dec-08 01:48N 40°25' W 073°60'2 4.5
2017-Dec-08 01:23N 40°25' W 074°02'1129.7
2017-Dec-08 01:00N 40°36' W 074°03'917.6
2017-Dec-08 00:30N 40°45' W 073°58'815.9
2017-Dec-08 00:00N 40°38' W 074°03'1325.4
2017-Dec-07 23:29N 40°25' W 073°60'812.1
2017-Dec-07 22:50N 40°32' W 074°02'1030.5
2017-Dec-07 22:30N 40°42' W 074°00'3 5.9
2017-Dec-07 22:00N 40°45' W 073°58'713.9
2017-Dec-07 21:31N 40°38' W 074°02'1319.4
2017-Dec-07 20:50N 40°25' W 074°01'916.5
2017-Dec-07 20:18N 40°34' W 074°02'828.2
2017-Dec-07 20:00N 40°42' W 074°00'3 5.7
2017-Dec-07 19:30N 40°45' W 073°58'0 0.0
2017-Dec-07 18:59N 40°45' W 073°58'0 0.0
2017-Dec-07 18:30N 40°45' W 073°58'0 0.0
2017-Dec-07 18:00N 40°45' W 073°58'0 0.0
2017-Dec-07 17:28N 40°45' W 073°58'0 0.0
2017-Dec-07 17:00N 40°45' W 073°58'0 0.0
2017-Dec-07 16:30N 40°45' W 073°58'0 0.0
2017-Dec-07 16:00N 40°45' W 073°58'0 0.0
2017-Dec-07 15:29N 40°45' W 073°58'0 0.0
2017-Dec-07 15:00N 40°45' W 073°58'3 6.3
2017-Dec-07 14:30N 40°42' W 074°00'1632.0
2017-Dec-07 14:00N 40°26' W 074°02'918.1
2017-Dec-07 13:30N 40°34' W 074°02'1121.2
2017-Dec-07 13:00N 40°45' W 073°58'511.1
2017-Dec-07 12:30N 40°40' W 074°01'1521.9
2017-Dec-07 11:51N 40°25' W 074°02'2 0.2
2017-Dec-07 01:35N 40°25' W 073°60'112.7
2017-Dec-07 01:30N 40°25' W 074°01'1121.6
2017-Dec-07 01:00N 40°36' W 074°03'918.0
2017-Dec-07 00:30N 40°45' W 073°58'714.2
2017-Dec-07 00:01N 40°38' W 074°02'1427.6
2017-Dec-06 23:30N 40°25' W 073°60'610.0
2017-Dec-06 22:54N 40°31' W 074°02'1229.9
2017-Dec-06 22:30N 40°42' W 074°00'3 5.9
2017-Dec-06 22:00N 40°45' W 073°58'918.4
2017-Dec-06 21:31N 40°36' W 074°03'1117.6
2017-Dec-06 20:53N 40°25' W 074°02'  
2017-Dec-04 02:35N 40°25' W 073°60'0 0.0
2017-Dec-04 02:23N 40°25' W 073°60'1129.7
2017-Dec-04 02:00N 40°36' W 074°03'1019.0
2017-Dec-04 01:30N 40°45' W 073°58'5 9.4
2017-Dec-04 01:00N 40°41' W 074°01'1632.0
2017-Dec-04 00:30N 40°25' W 073°60'0 0.3
2017-Dec-03 23:55N 40°25' W 073°60'610.4
2017-Dec-03 23:22N 40°30' W 074°02'1028.6
2017-Dec-03 23:00N 40°40' W 074°01'3 6.3
2017-Dec-03 22:30N 40°43' W 073°58'713.8
2017-Dec-03 22:00N 40°37' W 074°03'1215.2
2017-Dec-03 21:12N 40°25' W 073°60'721.4
2017-Dec-03 20:53N 40°31' W 074°02'1129.1
2017-Dec-03 20:30N 40°42' W 074°00'2 4.9
2017-Dec-03 20:00N 40°44' W 073°58'1222.9
2017-Dec-03 19:30N 40°33' W 074°02'815.2
2017-Dec-03 18:57N 40°25' W 073°60'1431.2
2017-Dec-03 18:31N 40°38' W 074°02'611.1
2017-Dec-03 18:01N 40°43' W 073°58'714.0
2017-Dec-03 17:30N 40°37' W 074°03'1214.0
2017-Dec-03 16:37N 40°25' W 073°60'723.9
2017-Dec-03 16:18N 40°32' W 074°02'928.9
2017-Dec-03 16:01N 40°40' W 074°01'2 4.9
2017-Dec-03 15:31N 40°42' W 073°59'612.1
2017-Dec-03 15:00N 40°37' W 074°03'13 2.5
2017-Dec-03 10:00N 40°25' W 073°60'0 0.0
2017-Dec-03 02:39N 40°25' W 073°60'0 0.2
2017-Dec-03 02:29N 40°25' W 073°60'1327.8
2017-Dec-03 02:00N 40°38' W 074°03'814.7
2017-Dec-03 01:29N 40°45' W 073°58'715.2
2017-Dec-03 01:00N 40°38' W 074°03'14 9.2
2017-Dec-02 23:32N 40°25' W 074°00'730.0
2017-Dec-02 23:18N 40°32' W 074°02'828.7
2017-Dec-02 23:01N 40°40' W 074°01'3 5.5
2017-Dec-02 22:31N 40°42' W 073°60'1123.0
2017-Dec-02 22:01N 40°31' W 074°02'1 1.8
2017-Dec-02 21:27N 40°32' W 074°02'1022.9
2017-Dec-02 21:01N 40°42' W 074°00'1 1.5
2017-Dec-02 20:30N 40°42' W 074°01'1 1.0
2017-Dec-02 20:00N 40°42' W 074°01'1019.2
2017-Dec-02 19:30N 40°32' W 074°02'815.0
2017-Dec-02 19:00N 40°25' W 073°60'1326.3
2017-Dec-02 18:30N 40°37' W 074°03'814.9
2017-Dec-02 18:00N 40°44' W 073°58'714.3
2017-Dec-02 17:31N 40°38' W 074°03'1423.8
2017-Dec-02 16:56N 40°25' W 073°60'1226.1
2017-Dec-02 16:30N 40°36' W 074°03'816.6
2017-Dec-02 16:00N 40°43' W 073°58'3 6.3
2017-Dec-02 15:30N 40°41' W 074°01'3 6.6
2017-Dec-02 15:01N 40°38' W 074°02'14 1.0
2017-Dec-02 01:40N 40°25' W 073°60'0 0.5
2017-Dec-02 01:30N 40°25' W 073°60'1122.3
2017-Dec-02 01:00N 40°36' W 074°03'1019.4
2017-Dec-02 00:30N 40°45' W 073°58'612.7
2017-Dec-02 00:00N 40°39' W 074°02'1427.9
2017-Dec-01 23:30N 40°25' W 074°00'711.7
2017-Dec-01 22:54N 40°31' W 074°02'1127.6
2017-Dec-01 22:30N 40°42' W 074°00'3 5.9
2017-Dec-01 22:00N 40°45' W 073°58'713.8
2017-Dec-01 21:31N 40°38' W 074°02'1321.5
2017-Dec-01 20:53N 40°25' W 074°02'713.4
2017-Dec-01 20:23N 40°32' W 074°02'1027.3
2017-Dec-01 20:00N 40°42' W 074°00'3 5.8
2017-Dec-01 19:30N 40°45' W 073°58'0 0.0
2017-Dec-01 19:00N 40°45' W 073°58'0 0.0
2017-Dec-01 18:30N 40°45' W 073°58'0 0.0
2017-Dec-01 18:00N 40°45' W 073°58'0 0.0
2017-Dec-01 17:30N 40°45' W 073°58'  
Track history (hours):
 
Tides and Currents Weather Stations Pressure Air Temp Water Temp Dewpoint Dewpoint Depression Visibility Wind Speed Wind Dir Waves Ship Positions

Seastreak New York

Owner: CIRCLE NAVIGATION, NEW YORK, NY. More information available from US FCC via Universal Licensing System and Coast Guard Vessel Documentation Center.

Last reported at 2017-Dec-11 17:00 UTC. Time now 2017-Dec-12 14:13 UTC.
Position N 40°45' W 073°58'.

; draft 4.7 m.

Type: Passenger vessel. MMSI: 367347130.

Date/timePositionNaut miles runAvg speedWind from/ knotsBaromVisibWave heightAir tempDewpointWater temp
2017-Dec-11 17:00N 40°45' W 073°58'0 0.0
2017-Dec-11 16:30N 40°45' W 073°58'0 0.0
2017-Dec-11 16:00N 40°45' W 073°58'0 0.0
2017-Dec-11 15:30N 40°45' W 073°58'0 0.0
2017-Dec-11 14:59N 40°45' W 073°58'4 8.9
2017-Dec-11 14:31N 40°41' W 074°02'1630.9
2017-Dec-11 14:00N 40°25' W 074°02'713.3
2017-Dec-11 13:30N 40°32' W 074°02'1324.8
2017-Dec-11 12:59N 40°45' W 073°58'612.9
2017-Dec-11 12:31N 40°39' W 074°02'1426.6
2017-Dec-11 11:59N 40°25' W 074°02'2 3.7
2017-Dec-11 11:29N 40°25' W 073°60'0 0.0
2017-Dec-09 21:44N 40°25' W 073°60'1 4.0
2017-Dec-09 21:30N 40°25' W 074°00'1223.6
2017-Dec-09 21:01N 40°37' W 074°03'611.3
2017-Dec-09 20:30N 40°42' W 074°00'2 4.4
2017-Dec-09 20:01N 40°44' W 073°58'1223.5
2017-Dec-09 19:30N 40°32' W 074°02'0 0.7
2017-Dec-09 18:49N 40°31' W 074°02'824.9
2017-Dec-09 18:31N 40°39' W 074°02'612.3
2017-Dec-09 18:00N 40°45' W 073°58'815.2
2017-Dec-09 17:30N 40°38' W 074°03'1326.9
2017-Dec-09 17:01N 40°25' W 073°60'6 8.4
2017-Dec-09 16:21N 40°30' W 074°02'1028.8
2017-Dec-09 16:00N 40°40' W 074°01'4 7.7
2017-Dec-09 15:31N 40°43' W 073°58'611.3
2017-Dec-09 15:00N 40°38' W 074°02'14 2.8
2017-Dec-09 10:01N 40°25' W 073°60'0 0.1
2017-Dec-09 09:58N 40°25' W 073°60'0 0.0
2017-Dec-09 09:25N 40°25' W 073°60'0 0.0
2017-Dec-09 08:55N 40°25' W 073°60'0 0.0
2017-Dec-09 08:30N 40°25' W 073°60'0 0.0
2017-Dec-09 08:01N 40°25' W 073°60'0 0.0
2017-Dec-09 07:03N 40°25' W 073°60'0 0.0
2017-Dec-09 06:43N 40°25' W 073°60'0 0.0
2017-Dec-09 01:49N 40°25' W 073°60'814.8
2017-Dec-09 01:16N 40°33' W 074°02'933.3
2017-Dec-09 01:01N 40°41' W 074°01'4 8.0
2017-Dec-09 00:30N 40°45' W 073°58'714.2
2017-Dec-09 00:01N 40°38' W 074°02'1422.4
2017-Dec-08 23:23N 40°25' W 073°60'814.0
2017-Dec-08 22:51N 40°32' W 074°02'1030.4
2017-Dec-08 22:30N 40°42' W 074°00'3 5.7
2017-Dec-08 22:00N 40°45' W 073°58'815.3
2017-Dec-08 21:30N 40°38' W 074°03'1321.1
2017-Dec-08 20:55N 40°25' W 074°02'915.5
2017-Dec-08 20:19N 40°34' W 074°02'825.2
2017-Dec-08 20:00N 40°42' W 074°00'3 5.8
2017-Dec-08 19:30N 40°45' W 073°58'0 0.0
2017-Dec-08 19:00N 40°45' W 073°58'0 0.0
2017-Dec-08 18:31N 40°45' W 073°58'0 0.0
2017-Dec-08 18:00N 40°45' W 073°58'0 0.0
2017-Dec-08 17:30N 40°45' W 073°58'0 0.0
2017-Dec-08 17:00N 40°45' W 073°58'0 0.0
2017-Dec-08 16:30N 40°45' W 073°58'0 0.0
2017-Dec-08 16:00N 40°45' W 073°58'0 0.0
2017-Dec-08 15:30N 40°45' W 073°58'0 0.0
2017-Dec-08 15:00N 40°45' W 073°58'3 6.3
2017-Dec-08 14:30N 40°42' W 074°00'1529.9
2017-Dec-08 14:00N 40°27' W 074°01'914.2
2017-Dec-08 13:23N 40°36' W 074°02'923.7
2017-Dec-08 12:59N 40°45' W 073°58'511.1
2017-Dec-08 12:31N 40°40' W 074°01'1519.2
2017-Dec-08 11:44N 40°25' W 074°00'1 0.1
2017-Dec-08 04:52N 40°25' W 073°60'0 0.0
2017-Dec-08 04:28N 40°25' W 073°60'0 0.0
2017-Dec-08 04:00N 40°25' W 073°60'0 0.0
2017-Dec-08 03:29N 40°25' W 073°60'0 0.0
2017-Dec-08 03:00N 40°25' W 073°60'0 0.0
2017-Dec-08 01:48N 40°25' W 073°60'2 4.5
2017-Dec-08 01:23N 40°25' W 074°02'1129.7
2017-Dec-08 01:00N 40°36' W 074°03'917.6
2017-Dec-08 00:30N 40°45' W 073°58'815.9
2017-Dec-08 00:00N 40°38' W 074°03'1325.4
2017-Dec-07 23:29N 40°25' W 073°60'812.1
2017-Dec-07 22:50N 40°32' W 074°02'1030.5
2017-Dec-07 22:30N 40°42' W 074°00'3 5.9
2017-Dec-07 22:00N 40°45' W 073°58'713.9
2017-Dec-07 21:31N 40°38' W 074°02'1319.4
2017-Dec-07 20:50N 40°25' W 074°01'916.5
2017-Dec-07 20:18N 40°34' W 074°02'828.2
2017-Dec-07 20:00N 40°42' W 074°00'3 5.7
2017-Dec-07 19:30N 40°45' W 073°58'0 0.0
2017-Dec-07 18:59N 40°45' W 073°58'0 0.0
2017-Dec-07 18:30N 40°45' W 073°58'0 0.0
2017-Dec-07 18:00N 40°45' W 073°58'0 0.0
2017-Dec-07 17:28N 40°45' W 073°58'0 0.0
2017-Dec-07 17:00N 40°45' W 073°58'0 0.0
2017-Dec-07 16:30N 40°45' W 073°58'0 0.0
2017-Dec-07 16:00N 40°45' W 073°58'0 0.0
2017-Dec-07 15:29N 40°45' W 073°58'0 0.0
2017-Dec-07 15:00N 40°45' W 073°58'3 6.3
2017-Dec-07 14:30N 40°42' W 074°00'1632.0
2017-Dec-07 14:00N 40°26' W 074°02'918.1
2017-Dec-07 13:30N 40°34' W 074°02'1121.2
2017-Dec-07 13:00N 40°45' W 073°58'511.1
2017-Dec-07 12:30N 40°40' W 074°01'1521.9
2017-Dec-07 11:51N 40°25' W 074°02'2 0.2
2017-Dec-07 01:35N 40°25' W 073°60'112.7
2017-Dec-07 01:30N 40°25' W 074°01'1121.6
2017-Dec-07 01:00N 40°36' W 074°03'918.0
2017-Dec-07 00:30N 40°45' W 073°58'714.2
2017-Dec-07 00:01N 40°38' W 074°02'1427.6
2017-Dec-06 23:30N 40°25' W 073°60'610.0
2017-Dec-06 22:54N 40°31' W 074°02'1229.9
2017-Dec-06 22:30N 40°42' W 074°00'3 5.9
2017-Dec-06 22:00N 40°45' W 073°58'918.4
2017-Dec-06 21:31N 40°36' W 074°03'1117.6
2017-Dec-06 20:53N 40°25' W 074°02'  
2017-Dec-04 02:35N 40°25' W 073°60'0 0.0
2017-Dec-04 02:23N 40°25' W 073°60'1129.7
2017-Dec-04 02:00N 40°36' W 074°03'1019.0
2017-Dec-04 01:30N 40°45' W 073°58'5 9.4
2017-Dec-04 01:00N 40°41' W 074°01'1632.0
2017-Dec-04 00:30N 40°25' W 073°60'0 0.3
2017-Dec-03 23:55N 40°25' W 073°60'610.4
2017-Dec-03 23:22N 40°30' W 074°02'1028.6
2017-Dec-03 23:00N 40°40' W 074°01'3 6.3
2017-Dec-03 22:30N 40°43' W 073°58'713.8
2017-Dec-03 22:00N 40°37' W 074°03'1215.2
2017-Dec-03 21:12N 40°25' W 073°60'721.4
2017-Dec-03 20:53N 40°31' W 074°02'1129.1
2017-Dec-03 20:30N 40°42' W 074°00'2 4.9
2017-Dec-03 20:00N 40°44' W 073°58'1222.9
2017-Dec-03 19:30N 40°33' W 074°02'815.2
2017-Dec-03 18:57N 40°25' W 073°60'1431.2
2017-Dec-03 18:31N 40°38' W 074°02'611.1
2017-Dec-03 18:01N 40°43' W 073°58'714.0
2017-Dec-03 17:30N 40°37' W 074°03'1214.0
2017-Dec-03 16:37N 40°25' W 073°60'723.9
2017-Dec-03 16:18N 40°32' W 074°02'928.9
2017-Dec-03 16:01N 40°40' W 074°01'2 4.9
2017-Dec-03 15:31N 40°42' W 073°59'612.1
2017-Dec-03 15:00N 40°37' W 074°03'13 2.5
2017-Dec-03 10:00N 40°25' W 073°60'0 0.0
2017-Dec-03 02:39N 40°25' W 073°60'0 0.2
2017-Dec-03 02:29N 40°25' W 073°60'1327.8
2017-Dec-03 02:00N 40°38' W 074°03'814.7
2017-Dec-03 01:29N 40°45' W 073°58'715.2
2017-Dec-03 01:00N 40°38' W 074°03'14 9.2
2017-Dec-02 23:32N 40°25' W 074°00'730.0
2017-Dec-02 23:18N 40°32' W 074°02'828.7
2017-Dec-02 23:01N 40°40' W 074°01'3 5.5
2017-Dec-02 22:31N 40°42' W 073°60'1123.0
2017-Dec-02 22:01N 40°31' W 074°02'1 1.8
2017-Dec-02 21:27N 40°32' W 074°02'1022.9
2017-Dec-02 21:01N 40°42' W 074°00'1 1.5
2017-Dec-02 20:30N 40°42' W 074°01'1 1.0
2017-Dec-02 20:00N 40°42' W 074°01'1019.2
2017-Dec-02 19:30N 40°32' W 074°02'815.0
2017-Dec-02 19:00N 40°25' W 073°60'1326.3
2017-Dec-02 18:30N 40°37' W 074°03'814.9
2017-Dec-02 18:00N 40°44' W 073°58'714.3
2017-Dec-02 17:31N 40°38' W 074°03'1423.8
2017-Dec-02 16:56N 40°25' W 073°60'1226.1
2017-Dec-02 16:30N 40°36' W 074°03'816.6
2017-Dec-02 16:00N 40°43' W 073°58'3 6.3
2017-Dec-02 15:30N 40°41' W 074°01'3 6.6
2017-Dec-02 15:01N 40°38' W 074°02'14 1.0
2017-Dec-02 01:40N 40°25' W 073°60'0 0.5
2017-Dec-02 01:30N 40°25' W 073°60'1122.3
2017-Dec-02 01:00N 40°36' W 074°03'1019.4
2017-Dec-02 00:30N 40°45' W 073°58'612.7
2017-Dec-02 00:00N 40°39' W 074°02'1427.9
2017-Dec-01 23:30N 40°25' W 074°00'711.7
2017-Dec-01 22:54N 40°31' W 074°02'1127.6
2017-Dec-01 22:30N 40°42' W 074°00'3 5.9
2017-Dec-01 22:00N 40°45' W 073°58'713.8
2017-Dec-01 21:31N 40°38' W 074°02'1321.5
2017-Dec-01 20:53N 40°25' W 074°02'713.4
2017-Dec-01 20:23N 40°32' W 074°02'1027.3
2017-Dec-01 20:00N 40°42' W 074°00'3 5.8
2017-Dec-01 19:30N 40°45' W 073°58'0 0.0
2017-Dec-01 19:00N 40°45' W 073°58'0 0.0
2017-Dec-01 18:30N 40°45' W 073°58'0 0.0
2017-Dec-01 18:00N 40°45' W 073°58'0 0.0
2017-Dec-01 17:30N 40°45' W 073°58'  

Dump ship's entire track history